Portada
METAR-TAF:

METAR-TAF

Aeroports :

Paderborn Lippstadt, Alemanya

latitud: 51-37N, longitud: 008-37E, altitud: 213 m

Observació

L'informe es va fer fa 41 minuts, a les 09:20 UTC
Vent 10 kt del Est/Sud-Est
Temperatura 6°C
Humitat 81%
Pressió 1008 hPa
Visibilitat 10 km o més
sense núvols per sota de 1500 mi sense presència de cumulonimbus.

METAR: EDLP 220920Z 12010KT CAVOK 06/03 Q1008

Hora: 11:01 (10:01 UTC)

Pronòstic

L'informe es va fer fa 5 hores i 1 minuts, a les 05:00 UTC
Pronòstic vàlid del 22 a les 06 UTC al 23 a les 06 UTC
Vent 9 kt del Sud-Est
Visibilitat 10 km o més
sense núvols per sota de 1500 mi sense presència de cumulonimbus.

TAF: EDLP 220500Z 2206/2306 13009KT CAVOK

Observacions i pronòstics meteorològics de més de 4000 aeroports (METAR i TAF).

Les estacions disponibles són els punts grocs i vermells al mapa.

Posi el ratolí al punt desitjat per veure el nom de l'estació.

Feu clic per veure les observacions i els pronòstics meteorològics.

Per canviar el mapa: feu clic els botons verds amb una creu de color negre per apropar; al botó verd amb un guió per allunyar la imatge; o en les fletxes verdes per a mapes adjacents.


METAR-TAF: